createdAt,value
2023-02-21T00:00:59.245Z,22.17
2023-02-21T00:03:51.976Z,25.35
2023-02-21T00:06:42.094Z,21.10
2023-02-21T00:09:32.391Z,25.88
2023-02-21T00:12:23.091Z,17.90
2023-02-21T00:15:14.612Z,18.23
2023-02-21T00:18:04.924Z,24.17
2023-02-21T00:20:55.800Z,20.77
2023-02-21T00:23:45.983Z,24.17
2023-02-21T00:26:37.256Z,25.55
2023-02-21T00:29:27.645Z,25.80
2023-02-21T00:32:20.242Z,20.63
2023-02-21T00:35:11.038Z,23.45
2023-02-21T00:38:01.398Z,28.00
2023-02-21T00:40:51.686Z,25.48
2023-02-21T00:43:47.377Z,26.25
2023-02-21T00:46:37.781Z,26.88
2023-02-21T00:49:29.364Z,24.13
2023-02-21T00:52:19.619Z,22.02
2023-02-21T00:55:09.854Z,18.42
2023-02-21T00:58:00.078Z,30.17
2023-02-21T01:00:50.398Z,25.42
2023-02-21T01:03:40.942Z,27.42
2023-02-21T01:06:32.478Z,26.83
2023-02-21T01:09:22.681Z,23.58
2023-02-21T01:12:12.938Z,24.08
2023-02-21T01:15:04.946Z,17.00
2023-02-21T01:17:55.195Z,17.83
2023-02-21T01:20:45.493Z,21.58
2023-02-21T01:23:37.088Z,24.35
2023-02-21T01:26:27.889Z,22.20
2023-02-21T01:29:21.926Z,25.60
2023-02-21T01:32:12.333Z,26.15
2023-02-21T01:35:03.159Z,27.10
2023-02-21T01:37:53.434Z,28.38
2023-02-21T01:40:45.376Z,25.02
2023-02-21T01:43:38.185Z,21.10
2023-02-21T01:46:30.501Z,28.58
2023-02-21T01:49:28.449Z,24.58
2023-02-21T01:52:19.831Z,33.60
2023-02-21T01:55:12.190Z,28.08
2023-02-21T01:58:05.516Z,27.33
2023-02-21T02:00:56.862Z,20.40
2023-02-21T02:03:49.507Z,25.42
2023-02-21T02:06:39.890Z,24.42
2023-02-21T02:09:35.619Z,23.38
2023-02-21T02:15:15.828Z,25.67
2023-02-21T02:18:07.356Z,30.67
2023-02-21T02:20:58.109Z,24.85
2023-02-21T02:24:14.408Z,32.03
2023-02-21T02:27:26.726Z,25.23
2023-02-21T02:30:28.942Z,29.30
2023-02-21T02:33:31.571Z,27.17
2023-02-21T02:36:10.888Z,26.58
2023-02-21T02:38:54.881Z,32.58
2023-02-21T02:41:38.880Z,27.95
2023-02-21T02:44:16.505Z,22.80
2023-02-21T02:46:51.722Z,26.23
2023-02-21T02:49:29.339Z,28.48
2023-02-21T02:52:07.342Z,28.60
2023-02-21T02:54:40.304Z,25.27
2023-02-21T02:57:14.727Z,30.25
2023-02-21T02:59:48.978Z,30.38
2023-02-21T03:02:35.414Z,30.60
2023-02-21T03:05:31.405Z,24.95
2023-02-21T03:08:15.522Z,30.75
2023-02-21T03:10:54.325Z,26.60
2023-02-21T03:13:36.890Z,27.85
2023-02-21T03:16:19.023Z,30.30
2023-02-21T03:18:56.602Z,35.78
2023-02-21T03:21:32.537Z,33.10
2023-02-21T03:24:11.870Z,28.15
2023-02-21T03:26:49.496Z,31.90
2023-02-21T03:29:45.974Z,27.90
2023-02-21T03:32:22.276Z,32.30
2023-02-21T03:34:55.439Z,28.45
2023-02-21T03:37:32.741Z,23.58
2023-02-21T03:40:11.543Z,30.77
2023-02-21T03:42:44.481Z,28.92
2023-02-21T03:45:17.981Z,33.13
2023-02-21T03:48:01.149Z,26.83
2023-02-21T03:50:34.083Z,32.05
2023-02-21T03:53:09.529Z,32.63
2023-02-21T03:55:44.928Z,31.70
2023-02-21T03:58:24.184Z,32.78
2023-02-21T04:00:57.636Z,35.00
2023-02-21T04:03:31.120Z,35.22
2023-02-21T04:06:08.843Z,22.63
2023-02-21T04:08:41.888Z,30.75
2023-02-21T04:11:17.820Z,33.83
2023-02-21T04:13:50.988Z,30.92
2023-02-21T04:16:24.294Z,28.40
2023-02-21T04:18:59.024Z,31.83
2023-02-21T04:21:34.851Z,29.55
2023-02-21T04:24:08.170Z,20.95
2023-02-21T04:26:43.475Z,29.52
2023-02-21T04:29:16.817Z,25.42
2023-02-21T04:31:50.052Z,24.92
2023-02-21T04:34:23.574Z,34.10
2023-02-21T04:36:58.870Z,31.73
2023-02-21T04:39:32.274Z,24.88
2023-02-21T04:42:06.794Z,33.13
2023-02-21T04:44:41.525Z,24.38
2023-02-21T04:47:16.970Z,29.75
2023-02-21T04:49:51.728Z,28.30
2023-02-21T04:52:24.772Z,24.58
2023-02-21T04:54:58.235Z,30.48
2023-02-21T04:57:32.918Z,31.58
2023-02-21T05:00:28.876Z,31.50
2023-02-21T05:03:03.619Z,27.15
2023-02-21T05:05:38.289Z,33.03
2023-02-21T05:08:13.258Z,28.67
2023-02-21T05:10:47.016Z,30.40
2023-02-21T05:13:25.908Z,25.17
2023-02-21T05:16:00.193Z,29.63
2023-02-21T05:18:37.483Z,33.17
2023-02-21T05:21:10.550Z,31.13
2023-02-21T05:23:56.073Z,28.50
2023-02-21T05:26:33.856Z,27.48
2023-02-21T05:29:10.258Z,27.45
2023-02-21T05:31:43.287Z,31.05
2023-02-21T05:34:17.368Z,31.80
2023-02-21T05:36:50.389Z,32.08
2023-02-21T05:39:23.244Z,27.45
2023-02-21T05:41:57.066Z,29.00
2023-02-21T05:44:31.575Z,30.13
2023-02-21T05:47:04.510Z,32.83
2023-02-21T05:49:37.273Z,30.60
2023-02-21T05:52:12.857Z,29.17
2023-02-21T05:54:45.860Z,35.53
2023-02-21T05:57:19.989Z,27.63
2023-02-21T05:59:54.334Z,31.80
2023-02-21T06:02:27.148Z,27.10
2023-02-21T06:05:00.102Z,27.15
2023-02-21T06:07:33.106Z,34.55
2023-02-21T06:10:06.753Z,34.67
2023-02-21T06:12:39.644Z,25.75
2023-02-21T06:15:13.922Z,29.73
2023-02-21T06:17:46.746Z,30.60
2023-02-21T06:20:19.785Z,29.85
2023-02-21T06:22:52.688Z,32.40
2023-02-21T06:25:25.528Z,32.88
2023-02-21T06:27:58.373Z,24.90
2023-02-21T06:30:32.863Z,29.08
2023-02-21T06:33:05.722Z,34.13
2023-02-21T06:35:38.535Z,32.92
2023-02-21T06:38:11.512Z,28.35
2023-02-21T06:40:45.019Z,34.08
2023-02-21T06:43:18.054Z,29.13
2023-02-21T06:45:52.260Z,33.25
2023-02-21T06:48:25.022Z,30.13
2023-02-21T06:50:57.905Z,31.38
2023-02-21T06:53:30.805Z,29.55
2023-02-21T06:56:03.655Z,31.90
2023-02-21T06:58:36.763Z,32.30
2023-02-21T07:01:11.207Z,31.25
2023-02-21T07:03:45.248Z,34.03
2023-02-21T07:06:18.351Z,31.60
2023-02-21T07:08:51.840Z,34.75
2023-02-21T07:11:24.623Z,33.42
2023-02-21T07:13:59.289Z,49.42
2023-02-21T07:16:33.622Z,85.20
2023-02-21T07:19:06.558Z,47.92
2023-02-21T07:21:39.367Z,36.17
2023-02-21T07:24:12.246Z,35.03
2023-02-21T07:26:45.046Z,31.55
2023-02-21T07:29:18.390Z,31.10
2023-02-21T07:31:53.221Z,34.35
2023-02-21T07:36:58.707Z,29.45
2023-02-21T07:39:31.734Z,30.92
2023-02-21T07:42:04.573Z,29.90
2023-02-21T07:44:37.423Z,30.63
2023-02-21T07:47:11.852Z,26.80
2023-02-21T07:49:44.693Z,28.45
2023-02-21T07:52:17.521Z,22.05
2023-02-21T07:54:50.481Z,28.25
2023-02-21T07:57:25.906Z,32.97
2023-02-21T07:59:58.904Z,25.27
2023-02-21T08:02:42.055Z,27.67
2023-02-21T08:05:18.479Z,26.77
2023-02-21T08:07:55.945Z,30.00
2023-02-21T08:10:29.406Z,26.35
2023-02-21T08:13:02.384Z,27.60
2023-02-21T08:15:35.190Z,17.67
2023-02-21T08:18:18.580Z,32.30
2023-02-21T08:20:52.160Z,31.05
2023-02-21T08:23:25.603Z,29.10
2023-02-21T08:25:59.882Z,26.33
2023-02-21T08:28:43.837Z,30.05
2023-02-21T08:31:16.938Z,30.33
2023-02-21T08:33:51.246Z,25.48
2023-02-21T08:36:32.408Z,30.27
2023-02-21T08:39:06.703Z,28.85
2023-02-21T08:41:40.826Z,29.42
2023-02-21T08:44:16.876Z,27.23
2023-02-21T08:46:50.021Z,27.10
2023-02-21T08:49:24.596Z,22.25
2023-02-21T08:51:57.403Z,27.40
2023-02-21T08:54:30.594Z,21.30
2023-02-21T08:57:03.738Z,21.13
2023-02-21T08:59:40.215Z,28.48
2023-02-21T09:02:26.058Z,26.80
2023-02-21T09:05:00.508Z,22.88
2023-02-21T09:07:33.561Z,26.95
2023-02-21T09:10:09.776Z,27.42
2023-02-21T09:12:42.582Z,29.80
2023-02-21T09:15:16.287Z,26.75
2023-02-21T09:17:50.683Z,26.73
2023-02-21T09:20:26.574Z,24.63
2023-02-21T09:22:59.554Z,25.98
2023-02-21T09:25:32.300Z,29.20
2023-02-21T09:28:05.096Z,26.23
2023-02-21T09:30:37.948Z,24.13
2023-02-21T09:33:11.192Z,23.55
2023-02-21T09:35:45.377Z,24.77
2023-02-21T09:38:18.176Z,26.97
2023-02-21T09:40:56.185Z,24.73
2023-02-21T09:43:34.505Z,22.80
2023-02-21T09:46:14.138Z,21.15
2023-02-21T09:48:47.220Z,20.95
2023-02-21T09:51:21.514Z,20.90
2023-02-21T09:53:59.165Z,19.88
2023-02-21T09:56:36.334Z,16.83
2023-02-21T09:59:12.391Z,20.17
2023-02-21T10:01:57.681Z,18.35
2023-02-21T10:04:44.435Z,20.38
2023-02-21T10:07:26.609Z,19.70
2023-02-21T10:10:04.933Z,20.05
2023-02-21T10:12:45.966Z,19.20
2023-02-21T10:15:35.534Z,17.63
2023-02-21T10:18:20.903Z,16.33
2023-02-21T10:23:34.891Z,15.60
2023-02-21T10:26:11.480Z,19.42
2023-02-21T10:28:44.994Z,15.85
2023-02-21T10:31:22.484Z,17.27
2023-02-21T10:33:55.475Z,19.80
2023-02-21T10:36:29.442Z,17.05
2023-02-21T10:39:11.844Z,17.50
2023-02-21T10:41:45.063Z,16.40
2023-02-21T10:44:24.385Z,17.27
2023-02-21T10:47:03.189Z,16.27
2023-02-21T10:49:42.078Z,17.50
2023-02-21T10:52:17.445Z,18.08
2023-02-21T10:55:09.738Z,16.70
2023-02-21T10:57:46.145Z,15.45
2023-02-21T11:00:26.649Z,13.45
2023-02-21T11:03:06.862Z,15.70
2023-02-21T11:05:39.845Z,14.63
2023-02-21T11:08:13.174Z,15.73
2023-02-21T11:10:47.750Z,15.27
2023-02-21T11:13:22.816Z,15.85
2023-02-21T11:16:11.558Z,13.38
2023-02-21T11:18:44.986Z,12.00
2023-02-21T11:21:20.258Z,11.30
2023-02-21T11:23:58.916Z,14.05
2023-02-21T11:26:38.648Z,14.43
2023-02-21T11:29:14.768Z,14.35
2023-02-21T11:31:47.892Z,16.27
2023-02-21T11:34:21.612Z,15.25
2023-02-21T11:37:04.092Z,13.10
2023-02-21T11:39:36.837Z,11.60
2023-02-21T11:45:25.069Z,12.68
2023-02-21T11:48:02.385Z,16.08
2023-02-21T11:50:40.216Z,14.88
2023-02-21T11:53:22.464Z,13.60
2023-02-21T11:56:03.750Z,15.50
2023-02-21T11:58:57.619Z,16.25
2023-02-21T12:01:38.936Z,17.95
2023-02-21T12:04:28.161Z,20.70
2023-02-21T12:07:07.288Z,22.70
2023-02-21T12:09:46.500Z,23.83
2023-02-21T12:12:33.477Z,22.73
2023-02-21T12:15:18.637Z,20.95
2023-02-21T12:18:25.534Z,23.05
2023-02-21T12:21:21.498Z,22.65
2023-02-21T12:24:00.746Z,28.58
2023-02-21T12:26:47.429Z,21.45
2023-02-21T12:29:34.362Z,17.35
2023-02-21T12:32:25.242Z,17.67
2023-02-21T12:35:31.018Z,20.55
2023-02-21T12:38:08.302Z,16.27
2023-02-21T12:40:48.178Z,17.85
2023-02-21T12:43:42.237Z,19.90
2023-02-21T12:46:22.756Z,17.45
2023-02-21T12:49:03.421Z,19.83
2023-02-21T12:51:42.380Z,20.92
2023-02-21T12:54:20.317Z,21.50
2023-02-21T12:56:58.915Z,22.55
2023-02-21T12:59:38.777Z,19.88
2023-02-21T13:02:16.868Z,24.08
2023-02-21T13:04:56.153Z,25.52
2023-02-21T13:07:36.146Z,25.45
2023-02-21T13:10:19.222Z,26.33
2023-02-21T13:12:58.170Z,26.80
2023-02-21T13:15:32.185Z,25.25
2023-02-21T13:18:12.632Z,26.90
2023-02-21T13:20:49.761Z,30.52
2023-02-21T13:24:06.146Z,28.83
2023-02-21T13:26:53.494Z,22.83
2023-02-21T13:29:30.162Z,27.85
2023-02-21T13:32:07.710Z,30.60
2023-02-21T13:34:45.730Z,30.73
2023-02-21T13:37:22.486Z,28.80
2023-02-21T13:40:07.157Z,27.13
2023-02-21T13:42:41.393Z,23.75
2023-02-21T13:45:21.998Z,29.02
2023-02-21T13:48:22.051Z,25.10
2023-02-21T13:50:56.343Z,24.95
2023-02-21T13:53:34.145Z,27.13
2023-02-21T13:56:17.116Z,25.27
2023-02-21T13:58:50.591Z,27.40
2023-02-21T14:01:50.005Z,27.30
2023-02-21T14:05:00.162Z,20.13
2023-02-21T14:07:59.372Z,22.58
2023-02-21T14:10:38.641Z,22.00
2023-02-21T14:13:25.444Z,24.80
2023-02-21T14:16:00.852Z,24.85
2023-02-21T14:18:43.881Z,26.92
2023-02-21T14:21:23.752Z,26.67
2023-02-21T14:24:00.378Z,29.90
2023-02-21T14:26:46.068Z,31.08
2023-02-21T14:29:39.350Z,29.88
2023-02-21T14:32:29.057Z,30.02
2023-02-21T14:35:03.887Z,29.55
2023-02-21T14:37:38.922Z,31.33
2023-02-21T14:40:25.720Z,35.33
2023-02-21T14:43:22.920Z,29.80
2023-02-21T14:46:17.920Z,33.42
2023-02-21T14:49:17.494Z,35.53
2023-02-21T14:52:24.475Z,34.67
2023-02-21T14:55:19.772Z,30.60
2023-02-21T14:58:27.274Z,36.13
2023-02-21T15:01:08.741Z,31.83
2023-02-21T15:03:48.398Z,35.40
2023-02-21T15:06:23.600Z,35.03
2023-02-21T15:08:56.439Z,34.53
2023-02-21T15:11:34.819Z,36.20
2023-02-21T15:14:23.871Z,35.42
2023-02-21T15:17:00.289Z,34.40
2023-02-21T15:19:35.504Z,32.97
2023-02-21T15:22:16.599Z,35.45
2023-02-21T15:25:13.072Z,32.22
2023-02-21T15:27:58.092Z,38.28
2023-02-21T15:30:40.011Z,36.83
2023-02-21T15:33:17.209Z,33.75
2023-02-21T15:35:54.037Z,38.03
2023-02-21T15:38:31.594Z,37.92
2023-02-21T15:41:10.971Z,36.38
2023-02-21T15:43:49.655Z,38.78
2023-02-21T15:46:26.680Z,36.75
2023-02-21T15:49:04.637Z,36.40
2023-02-21T15:51:39.088Z,35.13
2023-02-21T15:54:26.355Z,37.17
2023-02-21T15:57:04.009Z,34.67
2023-02-21T15:59:37.546Z,29.90
2023-02-21T16:02:15.933Z,30.58
2023-02-21T16:04:51.830Z,29.05
2023-02-21T16:07:33.803Z,37.17
2023-02-21T16:10:08.979Z,34.03
2023-02-21T16:12:44.653Z,34.03
2023-02-21T16:15:25.121Z,31.77
2023-02-21T16:18:03.279Z,34.10
2023-02-21T16:20:39.483Z,34.42
2023-02-21T16:23:25.751Z,32.80
2023-02-21T16:26:02.228Z,33.47
2023-02-21T16:28:35.086Z,31.90
2023-02-21T16:31:16.316Z,34.55
2023-02-21T16:33:51.388Z,33.58
2023-02-21T16:36:31.310Z,35.33
2023-02-21T16:39:04.257Z,32.33
2023-02-21T16:41:37.121Z,31.20
2023-02-21T16:44:10.194Z,29.73
2023-02-21T16:46:45.883Z,33.47
2023-02-21T16:49:18.725Z,31.02
2023-02-21T16:51:53.887Z,29.05
2023-02-21T16:54:26.846Z,32.28
2023-02-21T16:56:59.756Z,31.10
2023-02-21T16:59:32.746Z,33.35
2023-02-21T17:02:06.593Z,31.35
2023-02-21T17:04:39.434Z,31.35
2023-02-21T17:07:14.728Z,32.78
2023-02-21T17:09:47.512Z,33.22
2023-02-21T17:12:20.362Z,34.97
2023-02-21T17:14:53.265Z,33.90
2023-02-21T17:17:26.245Z,33.28
2023-02-21T17:19:59.366Z,33.85
2023-02-21T17:22:33.679Z,34.17
2023-02-21T17:25:08.138Z,34.65
2023-02-21T17:27:41.110Z,33.88
2023-02-21T17:30:15.038Z,33.60
2023-02-21T17:32:48.131Z,35.83
2023-02-21T17:35:22.473Z,32.97
2023-02-21T17:37:56.672Z,34.40
2023-02-21T17:40:29.948Z,32.78
2023-02-21T17:43:07.630Z,32.35
2023-02-21T17:45:40.407Z,33.20
2023-02-21T17:48:13.617Z,38.58
2023-02-21T17:50:46.663Z,36.63
2023-02-21T17:53:22.577Z,33.33
2023-02-21T17:55:56.134Z,34.80
2023-02-21T17:58:30.433Z,35.75
2023-02-21T18:01:03.435Z,36.70
2023-02-21T18:03:37.481Z,36.08
2023-02-21T18:06:10.749Z,36.80
2023-02-21T18:08:46.965Z,34.70
2023-02-21T18:11:20.112Z,29.65
2023-02-21T18:13:53.537Z,31.42
2023-02-21T18:16:26.464Z,34.72
2023-02-21T18:18:59.278Z,33.15
2023-02-21T18:21:32.165Z,33.25
2023-02-21T18:24:07.094Z,31.25
2023-02-21T18:29:12.948Z,35.50
2023-02-21T18:31:45.803Z,32.38
2023-02-21T18:34:18.694Z,36.20
2023-02-21T18:36:53.847Z,35.53
2023-02-21T18:39:28.368Z,36.78
2023-02-21T18:42:01.212Z,34.35
2023-02-21T18:44:34.367Z,34.63
2023-02-21T18:47:07.908Z,36.58
2023-02-21T18:49:43.898Z,37.25
2023-02-21T18:52:17.408Z,37.65
2023-02-21T18:54:51.973Z,31.23
2023-02-21T18:57:25.339Z,37.47
2023-02-21T18:59:58.263Z,39.28
2023-02-21T19:02:31.315Z,35.95
2023-02-21T19:05:04.408Z,40.47
2023-02-21T19:07:37.783Z,37.22
2023-02-21T19:10:12.845Z,38.78
2023-02-21T19:15:19.760Z,35.35
2023-02-21T19:17:52.555Z,35.08
2023-02-21T19:20:25.723Z,36.70
2023-02-21T19:22:58.647Z,35.80
2023-02-21T19:25:33.184Z,35.63
2023-02-21T19:28:06.827Z,39.15
2023-02-21T19:30:39.755Z,36.03
2023-02-21T19:33:12.629Z,36.45
2023-02-21T19:35:45.689Z,37.83
2023-02-21T19:38:18.718Z,35.08
2023-02-21T19:40:52.930Z,37.15
2023-02-21T19:43:26.045Z,33.97
2023-02-21T19:46:00.628Z,38.20
2023-02-21T19:48:33.476Z,36.00
2023-02-21T19:51:06.687Z,31.58
2023-02-21T19:53:39.937Z,32.53
2023-02-21T19:56:14.317Z,32.58
2023-02-21T19:58:49.346Z,34.08
2023-02-21T20:01:23.142Z,31.92
2023-02-21T20:03:56.127Z,34.38
2023-02-21T20:06:29.436Z,34.65
2023-02-21T20:09:02.872Z,31.65
2023-02-21T20:11:40.005Z,31.73
2023-02-21T20:14:14.526Z,34.78
2023-02-21T20:16:47.680Z,32.38
2023-02-21T20:19:22.456Z,32.92
2023-02-21T20:22:05.831Z,32.05
2023-02-21T20:24:44.100Z,30.88
2023-02-21T20:27:19.700Z,35.55
2023-02-21T20:29:52.518Z,34.53
2023-02-21T20:32:26.516Z,34.97
2023-02-21T20:34:59.366Z,34.47
2023-02-21T20:37:32.463Z,34.90
2023-02-21T20:40:08.040Z,33.75
2023-02-21T20:42:42.472Z,35.40
2023-02-21T20:45:15.453Z,31.67
2023-02-21T20:47:48.439Z,33.00
2023-02-21T20:50:23.869Z,32.63
2023-02-21T20:52:56.675Z,36.70
2023-02-21T20:55:29.444Z,33.60
2023-02-21T20:58:04.622Z,32.80
2023-02-21T21:00:38.764Z,30.38
2023-02-21T21:03:15.128Z,29.97
2023-02-21T21:05:48.967Z,44.17
2023-02-21T21:08:21.781Z,33.97
2023-02-21T21:10:54.990Z,33.67
2023-02-21T21:13:29.185Z,34.50
2023-02-21T21:16:02.002Z,32.45
2023-02-21T21:18:34.990Z,33.03
2023-02-21T21:21:08.126Z,29.73
2023-02-21T21:23:41.003Z,33.10
2023-02-21T21:26:14.292Z,31.02
2023-02-21T21:28:48.614Z,37.20
2023-02-21T21:31:23.531Z,36.75
2023-02-21T21:36:29.398Z,32.05
2023-02-21T21:39:02.173Z,34.42
2023-02-21T21:41:37.518Z,31.65
2023-02-21T21:44:12.392Z,30.42
2023-02-21T21:46:46.862Z,30.63
2023-02-21T21:49:22.235Z,33.30
2023-02-21T21:51:56.607Z,33.58
2023-02-21T21:54:31.462Z,33.25
2023-02-21T21:59:40.972Z,32.95
2023-02-21T22:02:14.052Z,31.33
2023-02-21T22:04:47.955Z,29.55
2023-02-21T22:07:20.825Z,33.28
2023-02-21T22:09:53.620Z,32.53
2023-02-21T22:12:27.937Z,30.17
2023-02-21T22:15:02.764Z,30.63
2023-02-21T22:20:17.193Z,28.25
2023-02-21T22:22:51.426Z,32.22
2023-02-21T22:25:24.255Z,31.48
2023-02-21T22:27:58.912Z,30.70
2023-02-21T22:30:33.127Z,29.10
2023-02-21T22:33:06.356Z,28.98
2023-02-21T22:35:40.090Z,27.05
2023-02-21T22:38:14.447Z,23.75
2023-02-21T22:40:48.083Z,23.55
2023-02-21T22:43:20.933Z,26.05
2023-02-21T22:45:58.091Z,24.73
2023-02-21T22:48:30.872Z,25.48
2023-02-21T22:51:03.691Z,22.33
2023-02-21T22:53:36.477Z,23.30
2023-02-21T22:56:14.680Z,22.63
2023-02-21T22:58:48.718Z,22.58
2023-02-21T23:01:26.305Z,23.70
2023-02-21T23:04:10.473Z,22.23
2023-02-21T23:06:44.372Z,26.42
2023-02-21T23:09:17.825Z,22.27
2023-02-21T23:11:52.598Z,23.75
2023-02-21T23:14:26.887Z,21.63
2023-02-21T23:17:01.426Z,20.95
2023-02-21T23:19:34.508Z,24.50
2023-02-21T23:22:09.969Z,23.10
2023-02-21T23:24:45.777Z,25.15
2023-02-21T23:27:20.986Z,24.00
2023-02-21T23:29:54.098Z,21.48
2023-02-21T23:32:28.765Z,23.90
2023-02-21T23:35:01.682Z,23.02
2023-02-21T23:37:42.808Z,23.60
2023-02-21T23:40:18.159Z,23.83
2023-02-21T23:42:54.422Z,23.83
2023-02-21T23:45:27.212Z,26.85
2023-02-21T23:48:01.297Z,23.80
2023-02-21T23:50:34.332Z,22.80
2023-02-21T23:53:09.579Z,24.15
2023-02-21T23:55:43.660Z,21.85
2023-02-21T23:58:19.322Z,23.10
